createdAt,value
2022-11-09T00:00:08.313Z,17.95
2022-11-09T00:02:35.299Z,20.95
2022-11-09T00:05:02.533Z,22.48
2022-11-09T00:07:31.841Z,23.85
2022-11-09T00:09:58.753Z,19.13
2022-11-09T00:12:25.788Z,23.23
2022-11-09T00:14:52.686Z,19.60
2022-11-09T00:17:19.687Z,25.15
2022-11-09T00:19:46.616Z,25.05
2022-11-09T00:22:13.601Z,20.58
2022-11-09T00:24:40.613Z,20.83
2022-11-09T00:27:07.535Z,22.95
2022-11-09T00:29:34.479Z,19.38
2022-11-09T00:32:01.407Z,17.65
2022-11-09T00:34:28.324Z,22.15
2022-11-09T00:36:55.234Z,17.38
2022-11-09T00:39:22.131Z,20.00
2022-11-09T00:41:49.032Z,23.85
2022-11-09T00:44:15.932Z,26.17
2022-11-09T00:46:42.878Z,20.92
2022-11-09T00:49:09.738Z,21.40
2022-11-09T00:51:36.685Z,22.75
2022-11-09T00:54:03.716Z,23.23
2022-11-09T00:56:30.633Z,24.75
2022-11-09T00:58:57.605Z,18.42
2022-11-09T01:01:25.003Z,25.58
2022-11-09T01:03:52.001Z,23.38
2022-11-09T01:06:24.726Z,22.25
2022-11-09T01:08:52.734Z,18.98
2022-11-09T01:11:21.376Z,17.88
2022-11-09T01:13:49.169Z,19.15
2022-11-09T01:16:19.230Z,15.00
2022-11-09T01:18:46.205Z,21.93
2022-11-09T01:23:43.048Z,16.88
2022-11-09T01:26:12.535Z,16.83
2022-11-09T01:28:40.059Z,19.23
2022-11-09T01:31:16.874Z,25.17
2022-11-09T01:33:45.092Z,19.00
2022-11-09T01:36:15.278Z,19.95
2022-11-09T01:38:42.924Z,18.42
2022-11-09T01:41:15.152Z,17.77
2022-11-09T01:43:43.102Z,16.45
2022-11-09T01:46:24.825Z,22.50
2022-11-09T01:49:03.199Z,29.40
2022-11-09T01:51:42.603Z,24.95
2022-11-09T01:54:37.366Z,20.70
2022-11-09T01:57:20.433Z,27.17
2022-11-09T01:59:52.890Z,20.85
2022-11-09T02:02:20.542Z,22.25
2022-11-09T02:05:07.076Z,17.00
2022-11-09T02:07:35.318Z,19.95
2022-11-09T02:10:08.698Z,24.42
2022-11-09T02:12:36.512Z,25.60
2022-11-09T02:15:07.881Z,29.00
2022-11-09T02:17:35.586Z,26.83
2022-11-09T02:20:06.798Z,23.75
2022-11-09T02:22:34.900Z,22.05
2022-11-09T02:25:03.378Z,26.05
2022-11-09T02:27:30.552Z,23.50
2022-11-09T02:29:59.154Z,29.33
2022-11-09T02:32:29.916Z,21.65
2022-11-09T02:34:57.361Z,29.38
2022-11-09T02:37:39.806Z,23.20
2022-11-09T02:40:19.387Z,21.15
2022-11-09T02:42:46.442Z,21.60
2022-11-09T02:45:18.511Z,24.70
2022-11-09T02:47:45.488Z,22.60
2022-11-09T02:50:12.484Z,23.52
2022-11-09T02:52:39.417Z,28.90
2022-11-09T02:55:06.849Z,23.50
2022-11-09T02:57:33.802Z,24.52
2022-11-09T03:00:00.806Z,29.00
2022-11-09T03:02:27.805Z,21.20
2022-11-09T03:04:54.707Z,32.47
2022-11-09T03:07:21.607Z,25.73
2022-11-09T03:09:48.495Z,25.80
2022-11-09T03:12:30.574Z,23.30
2022-11-09T03:15:03.457Z,24.63
2022-11-09T03:17:32.670Z,29.05
2022-11-09T03:19:59.614Z,25.25
2022-11-09T03:22:26.797Z,29.25
2022-11-09T03:24:53.701Z,23.65
2022-11-09T03:27:20.623Z,28.67
2022-11-09T03:29:47.543Z,24.95
2022-11-09T03:32:14.475Z,26.02
2022-11-09T03:34:41.466Z,24.23
2022-11-09T03:37:08.402Z,23.42
2022-11-09T03:39:35.318Z,31.67
2022-11-09T03:42:02.302Z,28.80
2022-11-09T03:44:29.216Z,25.50
2022-11-09T03:46:56.199Z,25.58
2022-11-09T03:49:23.954Z,24.00
2022-11-09T03:51:51.716Z,28.48
2022-11-09T03:54:18.736Z,23.27
2022-11-09T03:56:45.895Z,29.17
2022-11-09T03:59:12.846Z,26.77
2022-11-09T04:01:39.911Z,27.38
2022-11-09T04:04:07.178Z,25.48
2022-11-09T04:06:34.321Z,26.38
2022-11-09T04:09:01.256Z,31.40
2022-11-09T04:11:28.336Z,21.77
2022-11-09T04:13:55.278Z,23.63
2022-11-09T04:16:22.251Z,27.48
2022-11-09T04:18:49.858Z,28.25
2022-11-09T04:21:21.428Z,27.55
2022-11-09T04:23:50.632Z,23.48
2022-11-09T04:26:17.660Z,26.45
2022-11-09T04:28:44.645Z,28.90
2022-11-09T04:31:11.611Z,28.38
2022-11-09T04:33:38.539Z,31.25
2022-11-09T04:36:06.058Z,27.77
2022-11-09T04:38:33.297Z,23.05
2022-11-09T04:41:03.741Z,24.23
2022-11-09T04:43:30.668Z,20.65
2022-11-09T04:46:00.919Z,19.90
2022-11-09T04:48:28.592Z,20.35
2022-11-09T04:51:03.423Z,28.35
2022-11-09T04:53:30.899Z,19.83
2022-11-09T04:55:58.194Z,24.42
2022-11-09T04:58:25.996Z,25.65
2022-11-09T05:00:53.866Z,19.73
2022-11-09T05:03:21.513Z,21.27
2022-11-09T05:05:48.887Z,22.52
2022-11-09T05:08:15.964Z,24.67
2022-11-09T05:10:42.861Z,21.48
2022-11-09T05:13:12.230Z,20.55
2022-11-09T05:15:41.312Z,23.75
2022-11-09T05:18:09.861Z,22.42
2022-11-09T05:20:36.853Z,23.92
2022-11-09T05:23:23.081Z,21.52
2022-11-09T05:25:50.225Z,21.50
2022-11-09T05:28:17.591Z,19.13
2022-11-09T05:30:44.514Z,25.25
2022-11-09T05:33:11.454Z,24.20
2022-11-09T05:35:38.384Z,22.80
2022-11-09T05:38:05.367Z,17.38
2022-11-09T05:40:33.553Z,27.63
2022-11-09T05:43:00.451Z,20.85
2022-11-09T05:45:42.202Z,22.90
2022-11-09T05:48:10.626Z,23.15
2022-11-09T05:50:38.351Z,22.17
2022-11-09T05:53:05.609Z,22.45
2022-11-09T05:55:32.665Z,20.38
2022-11-09T05:57:59.654Z,27.58
2022-11-09T06:00:26.916Z,19.67
2022-11-09T06:02:54.237Z,22.98
2022-11-09T06:05:21.715Z,20.20
2022-11-09T06:07:48.667Z,21.05
2022-11-09T06:10:15.620Z,24.90
2022-11-09T06:12:42.568Z,20.88
2022-11-09T06:15:09.747Z,26.80
2022-11-09T06:17:36.631Z,18.23
2022-11-09T06:20:04.611Z,21.55
2022-11-09T06:22:31.795Z,22.73
2022-11-09T06:24:58.689Z,24.88
2022-11-09T06:27:25.636Z,18.73
2022-11-09T06:29:52.618Z,23.73
2022-11-09T06:32:19.732Z,23.40
2022-11-09T06:34:48.500Z,17.55
2022-11-09T06:37:17.954Z,20.20
2022-11-09T06:39:45.607Z,24.77
2022-11-09T06:42:12.761Z,18.13
2022-11-09T06:44:39.748Z,20.63
2022-11-09T06:47:06.726Z,22.38
2022-11-09T06:49:33.700Z,21.98
2022-11-09T06:52:00.699Z,24.05
2022-11-09T06:54:28.244Z,19.75
2022-11-09T06:56:55.768Z,17.58
2022-11-09T06:59:22.907Z,18.73
2022-11-09T07:01:49.995Z,17.05
2022-11-09T07:04:17.033Z,20.40
2022-11-09T07:06:44.643Z,19.08
2022-11-09T07:09:12.852Z,18.27
2022-11-09T07:11:40.333Z,17.50
2022-11-09T07:14:07.351Z,22.10
2022-11-09T07:16:34.392Z,15.77
2022-11-09T07:19:03.038Z,18.75
2022-11-09T07:21:30.026Z,18.23
2022-11-09T07:23:57.012Z,19.33
2022-11-09T07:26:24.007Z,15.63
2022-11-09T07:28:51.015Z,18.60
2022-11-09T07:31:20.038Z,16.40
2022-11-09T07:33:47.048Z,19.27
2022-11-09T07:36:18.374Z,16.15
2022-11-09T07:38:48.158Z,15.70
2022-11-09T07:41:15.087Z,18.17
2022-11-09T07:43:42.050Z,13.90
2022-11-09T07:46:09.004Z,13.30
2022-11-09T07:48:36.510Z,13.82
2022-11-09T07:51:03.686Z,14.75
2022-11-09T07:53:31.045Z,13.35
2022-11-09T07:56:02.618Z,13.93
2022-11-09T07:58:30.197Z,14.52
2022-11-09T08:00:58.240Z,12.77
2022-11-09T08:03:25.720Z,12.68
2022-11-09T08:05:52.788Z,11.82
2022-11-09T08:08:20.055Z,11.85
2022-11-09T08:10:51.515Z,13.32
2022-11-09T08:13:20.010Z,18.00
2022-11-09T08:15:47.790Z,12.00
2022-11-09T08:18:17.356Z,18.52
2022-11-09T08:20:44.521Z,15.30
2022-11-09T08:23:16.572Z,13.05
2022-11-09T08:25:44.069Z,12.60
2022-11-09T08:28:14.783Z,15.80
2022-11-09T08:30:43.243Z,15.15
2022-11-09T08:33:11.344Z,13.27
2022-11-09T08:35:38.645Z,14.15
2022-11-09T08:38:06.162Z,11.15
2022-11-09T08:40:33.960Z,19.33
2022-11-09T08:43:03.200Z,14.77
2022-11-09T08:45:34.690Z,12.90
2022-11-09T08:48:02.389Z,14.38
2022-11-09T08:50:30.656Z,10.05
2022-11-09T08:52:58.066Z,12.10
2022-11-09T08:55:25.348Z,15.55
2022-11-09T08:57:56.745Z,14.75
2022-11-09T09:00:24.237Z,12.98
2022-11-09T09:02:51.175Z,13.23
2022-11-09T09:05:18.203Z,11.23
2022-11-09T09:07:45.135Z,10.35
2022-11-09T09:10:12.313Z,11.90
2022-11-09T09:12:39.275Z,14.50
2022-11-09T09:15:06.976Z,9.77
2022-11-09T09:17:35.583Z,16.17
2022-11-09T09:20:02.979Z,11.20
2022-11-09T09:22:29.866Z,12.48
2022-11-09T09:24:56.885Z,11.75
2022-11-09T09:27:23.915Z,14.02
2022-11-09T09:29:50.956Z,9.77
2022-11-09T09:32:17.899Z,13.63
2022-11-09T09:34:44.832Z,13.20
2022-11-09T09:37:11.948Z,12.32
2022-11-09T09:39:38.955Z,15.45
2022-11-09T09:42:21.881Z,12.35
2022-11-09T09:45:19.747Z,12.48
2022-11-09T09:48:02.558Z,10.50
2022-11-09T09:50:46.073Z,9.90
2022-11-09T09:53:29.649Z,11.07
2022-11-09T09:56:12.738Z,12.10
2022-11-09T09:58:46.543Z,10.85
2022-11-09T10:01:22.422Z,12.43
2022-11-09T10:03:50.893Z,12.60
2022-11-09T10:06:23.649Z,12.35
2022-11-09T10:08:56.362Z,11.00
2022-11-09T10:11:48.284Z,10.38
2022-11-09T10:15:03.903Z,10.93
2022-11-09T10:17:39.183Z,11.15
2022-11-09T10:20:17.773Z,14.25
2022-11-09T10:22:47.393Z,12.55
2022-11-09T10:25:43.298Z,13.70
2022-11-09T10:28:17.314Z,12.23
2022-11-09T10:30:45.167Z,13.45
2022-11-09T10:33:14.839Z,14.50
2022-11-09T10:35:48.249Z,9.77
2022-11-09T10:38:38.703Z,11.43
2022-11-09T10:41:21.472Z,10.13
2022-11-09T10:43:48.358Z,10.30
2022-11-09T10:46:21.696Z,12.13
2022-11-09T10:48:48.618Z,20.13
2022-11-09T10:51:32.415Z,11.25
2022-11-09T10:54:21.127Z,15.20
2022-11-09T10:57:05.574Z,16.75
2022-11-09T10:59:48.747Z,11.20
2022-11-09T11:02:28.033Z,12.07
2022-11-09T11:05:06.738Z,17.75
2022-11-09T11:07:36.567Z,11.70
2022-11-09T11:10:15.373Z,13.68
2022-11-09T11:13:05.305Z,12.65
2022-11-09T11:15:40.678Z,10.60
2022-11-09T11:18:34.399Z,14.15
2022-11-09T11:21:16.090Z,14.23
2022-11-09T11:23:45.635Z,15.43
2022-11-09T11:26:25.053Z,9.15
2022-11-09T11:29:06.875Z,11.32
2022-11-09T11:31:33.902Z,10.88
2022-11-09T11:34:02.282Z,11.20
2022-11-09T11:36:45.095Z,12.93
2022-11-09T11:39:39.586Z,12.65
2022-11-09T11:42:30.912Z,13.35
2022-11-09T11:45:41.512Z,12.68
2022-11-09T11:48:21.948Z,13.48
2022-11-09T11:50:49.001Z,13.50
2022-11-09T11:53:31.142Z,14.23
2022-11-09T11:56:19.601Z,12.13
2022-11-09T11:59:01.894Z,9.80
2022-11-09T12:01:39.728Z,12.93
2022-11-09T12:04:35.045Z,15.57
2022-11-09T12:07:04.833Z,16.15
2022-11-09T12:09:43.818Z,12.60
2022-11-09T12:12:28.661Z,11.82
2022-11-09T12:14:58.426Z,13.65
2022-11-09T12:17:43.557Z,16.35
2022-11-09T12:20:43.435Z,12.10
2022-11-09T12:23:22.957Z,14.68
2022-11-09T12:26:24.159Z,16.38
2022-11-09T12:32:12.056Z,14.10
2022-11-09T12:34:48.919Z,15.10
2022-11-09T12:37:24.316Z,16.63
2022-11-09T12:39:54.143Z,16.95
2022-11-09T12:42:28.991Z,13.18
2022-11-09T12:45:04.871Z,16.13
2022-11-09T12:47:43.430Z,16.67
2022-11-09T12:50:20.153Z,14.10
2022-11-09T12:52:49.021Z,13.82
2022-11-09T12:55:19.085Z,15.32
2022-11-09T12:57:47.875Z,16.27
2022-11-09T13:00:33.368Z,12.07
2022-11-09T13:03:04.213Z,15.27
2022-11-09T13:05:32.817Z,13.27
2022-11-09T13:08:01.465Z,19.85
2022-11-09T13:10:38.230Z,18.38
2022-11-09T13:13:08.114Z,17.45
2022-11-09T13:15:35.786Z,14.75
2022-11-09T13:18:46.808Z,15.40
2022-11-09T13:21:22.956Z,14.32
2022-11-09T13:24:01.580Z,24.40
2022-11-09T13:26:32.833Z,19.40
2022-11-09T13:29:15.107Z,18.92
2022-11-09T13:32:01.889Z,18.70
2022-11-09T13:34:50.694Z,16.20
2022-11-09T13:37:42.287Z,21.23
2022-11-09T13:40:30.608Z,18.23
2022-11-09T13:43:17.727Z,18.48
2022-11-09T13:45:46.242Z,14.10
2022-11-09T13:48:39.857Z,17.77
2022-11-09T13:51:37.758Z,17.77
2022-11-09T13:54:24.162Z,15.68
2022-11-09T13:56:51.214Z,19.10
2022-11-09T13:59:32.511Z,15.65
2022-11-09T14:02:01.459Z,16.25
2022-11-09T14:04:30.846Z,16.25
2022-11-09T14:07:01.037Z,16.05
2022-11-09T14:09:31.605Z,17.00
2022-11-09T14:12:26.253Z,16.98
2022-11-09T14:14:56.225Z,18.85
2022-11-09T14:18:00.902Z,17.20
2022-11-09T14:20:56.900Z,18.05
2022-11-09T14:23:29.005Z,15.82
2022-11-09T14:25:56.466Z,15.90
2022-11-09T14:28:28.173Z,19.50
2022-11-09T14:30:55.637Z,19.77
2022-11-09T14:33:36.462Z,17.10
2022-11-09T14:36:05.327Z,20.42
2022-11-09T14:38:35.604Z,22.08
2022-11-09T14:41:03.694Z,17.13
2022-11-09T14:43:43.188Z,17.83
2022-11-09T14:46:19.498Z,19.35
2022-11-09T14:48:54.625Z,19.60
2022-11-09T14:51:30.362Z,20.95
2022-11-09T14:53:59.375Z,19.73
2022-11-09T14:56:27.165Z,16.15
2022-11-09T14:58:55.348Z,19.15
2022-11-09T15:01:25.728Z,20.55
2022-11-09T15:04:21.021Z,21.92
2022-11-09T15:06:52.445Z,23.65
2022-11-09T15:09:28.089Z,32.05
2022-11-09T15:11:55.260Z,28.02
2022-11-09T15:14:32.702Z,21.55
2022-11-09T15:17:17.837Z,25.45
2022-11-09T15:19:55.635Z,27.60
2022-11-09T15:22:50.351Z,28.55
2022-11-09T15:25:37.293Z,21.73
2022-11-09T15:28:13.684Z,29.30
2022-11-09T15:30:46.248Z,27.42
2022-11-09T15:33:19.368Z,29.40
2022-11-09T15:36:18.103Z,28.20
2022-11-09T15:38:55.588Z,45.40
2022-11-09T15:41:24.527Z,31.08
2022-11-09T15:43:51.463Z,83.18
2022-11-09T15:46:24.550Z,34.25
2022-11-09T15:48:51.895Z,27.30
2022-11-09T15:51:19.233Z,29.52
2022-11-09T15:53:46.277Z,26.52
2022-11-09T15:56:22.395Z,27.17
2022-11-09T15:58:49.634Z,25.90
2022-11-09T16:01:16.678Z,26.17
2022-11-09T16:03:43.659Z,26.20
2022-11-09T16:06:11.344Z,30.77
2022-11-09T16:08:38.631Z,22.38
2022-11-09T16:11:07.866Z,28.55
2022-11-09T16:13:34.831Z,23.45
2022-11-09T16:16:06.026Z,25.33
2022-11-09T16:18:33.592Z,25.00
2022-11-09T16:21:11.795Z,27.75
2022-11-09T16:23:39.075Z,24.85
2022-11-09T16:26:08.806Z,25.55
2022-11-09T16:28:37.290Z,24.77
2022-11-09T16:31:04.247Z,27.73
2022-11-09T16:33:31.218Z,27.20
2022-11-09T16:36:01.832Z,24.20
2022-11-09T16:38:30.584Z,28.90
2022-11-09T16:40:59.838Z,26.42
2022-11-09T16:43:27.329Z,25.92
2022-11-09T16:46:01.166Z,28.48
2022-11-09T16:48:28.122Z,28.77
2022-11-09T16:50:55.032Z,26.58
2022-11-09T16:53:26.677Z,27.75
2022-11-09T16:55:54.656Z,28.17
2022-11-09T16:58:21.889Z,27.25
2022-11-09T17:03:37.795Z,24.02
2022-11-09T17:06:05.023Z,24.23
2022-11-09T17:08:31.915Z,27.13
2022-11-09T17:10:58.819Z,24.05
2022-11-09T17:13:25.765Z,26.08
2022-11-09T17:15:53.456Z,26.63
2022-11-09T17:18:20.662Z,26.77
2022-11-09T17:20:50.511Z,26.98
2022-11-09T17:23:18.950Z,24.65
2022-11-09T17:26:12.285Z,25.20
2022-11-09T17:28:42.964Z,26.95
2022-11-09T17:31:15.268Z,24.98
2022-11-09T17:33:42.486Z,26.58
2022-11-09T17:36:14.003Z,22.98
2022-11-09T17:38:41.678Z,29.58
2022-11-09T17:41:10.999Z,26.75
2022-11-09T17:43:39.802Z,29.70
2022-11-09T17:46:14.661Z,28.73
2022-11-09T17:48:43.379Z,24.08
2022-11-09T17:51:10.895Z,26.75
2022-11-09T17:53:38.441Z,27.67
2022-11-09T17:56:17.618Z,25.42
2022-11-09T17:58:46.024Z,26.45
2022-11-09T18:01:18.787Z,27.73
2022-11-09T18:03:46.407Z,30.17
2022-11-09T18:06:22.807Z,27.23
2022-11-09T18:09:10.780Z,30.05
2022-11-09T18:11:37.432Z,29.95
2022-11-09T18:14:04.465Z,27.33
2022-11-09T18:16:31.456Z,25.42
2022-11-09T18:19:04.106Z,26.63
2022-11-09T18:21:33.569Z,29.75
2022-11-09T18:24:00.879Z,28.92
2022-11-09T18:26:27.944Z,26.73
2022-11-09T18:28:57.825Z,24.70
2022-11-09T18:31:24.989Z,28.45
2022-11-09T18:33:53.234Z,30.77
2022-11-09T18:36:21.724Z,28.20
2022-11-09T18:38:51.975Z,28.63
2022-11-09T18:41:22.045Z,28.33
2022-11-09T18:43:50.287Z,25.35
2022-11-09T18:46:18.790Z,28.50
2022-11-09T18:48:49.550Z,26.15
2022-11-09T18:51:16.511Z,34.17
2022-11-09T18:53:44.787Z,27.48
2022-11-09T18:56:23.163Z,29.60
2022-11-09T18:58:53.062Z,31.50
2022-11-09T19:01:23.054Z,26.98
2022-11-09T19:03:52.979Z,27.40
2022-11-09T19:06:24.552Z,28.02
2022-11-09T19:09:10.179Z,27.73
2022-11-09T19:11:37.198Z,33.28
2022-11-09T19:14:04.144Z,28.08
2022-11-09T19:16:31.506Z,33.35
2022-11-09T19:18:58.432Z,33.10
2022-11-09T19:21:25.418Z,31.85
2022-11-09T19:23:53.195Z,28.60
2022-11-09T19:26:21.454Z,30.75
2022-11-09T19:28:48.427Z,28.75
2022-11-09T19:31:18.078Z,31.88
2022-11-09T19:33:45.054Z,33.72
2022-11-09T19:38:59.469Z,30.58
2022-11-09T19:41:26.525Z,31.92
2022-11-09T19:43:55.989Z,31.25
2022-11-09T19:46:23.074Z,33.67
2022-11-09T19:48:50.155Z,32.28
2022-11-09T19:51:18.320Z,30.17
2022-11-09T19:53:55.909Z,36.55
2022-11-09T19:56:24.507Z,36.22
2022-11-09T19:58:53.803Z,34.42
2022-11-09T20:01:21.670Z,31.02
2022-11-09T20:03:50.597Z,36.10
2022-11-09T20:06:19.001Z,32.58
2022-11-09T20:08:47.429Z,36.58
2022-11-09T20:11:37.202Z,32.30
2022-11-09T20:14:05.365Z,36.75
2022-11-09T20:16:33.599Z,41.25
2022-11-09T20:19:02.130Z,38.40
2022-11-09T20:21:29.072Z,40.38
2022-11-09T20:23:56.178Z,35.90
2022-11-09T20:26:23.343Z,40.78
2022-11-09T20:28:53.416Z,38.50
2022-11-09T20:31:21.420Z,38.93
2022-11-09T20:33:49.247Z,40.60
2022-11-09T20:36:16.373Z,38.83
2022-11-09T20:38:43.513Z,37.75
2022-11-09T20:41:11.903Z,47.00
2022-11-09T20:43:39.063Z,41.03
2022-11-09T20:46:13.739Z,43.85
2022-11-09T20:48:53.994Z,48.17
2022-11-09T20:51:22.104Z,42.95
2022-11-09T20:53:50.334Z,41.97
2022-11-09T20:56:18.965Z,45.20
2022-11-09T20:58:46.458Z,46.13
2022-11-09T21:01:21.953Z,48.70
2022-11-09T21:03:50.948Z,41.78
2022-11-09T21:06:19.399Z,47.60
2022-11-09T21:08:50.090Z,47.03
2022-11-09T21:11:17.778Z,49.33
2022-11-09T21:13:50.012Z,51.80
2022-11-09T21:16:18.595Z,46.15
2022-11-09T21:18:45.637Z,59.50
2022-11-09T21:21:18.374Z,64.13
2022-11-09T21:24:04.423Z,50.13
2022-11-09T21:26:50.033Z,57.25
2022-11-09T21:29:43.114Z,54.20
2022-11-09T21:32:11.707Z,42.83
2022-11-09T21:34:38.878Z,45.50
2022-11-09T21:37:08.911Z,45.50
2022-11-09T21:39:35.918Z,46.67
2022-11-09T21:42:04.778Z,47.92
2022-11-09T21:44:33.358Z,47.50
2022-11-09T21:47:01.387Z,47.13
2022-11-09T21:49:28.440Z,47.03
2022-11-09T21:51:55.445Z,49.63
2022-11-09T21:54:24.756Z,47.45
2022-11-09T21:56:52.277Z,43.30
2022-11-09T21:59:19.240Z,42.65
2022-11-09T22:01:46.599Z,51.05
2022-11-09T22:04:13.828Z,48.67
2022-11-09T22:06:43.397Z,50.70
2022-11-09T22:09:15.949Z,51.65
2022-11-09T22:12:02.130Z,47.10
2022-11-09T22:14:47.642Z,43.65
2022-11-09T22:17:15.003Z,42.83
2022-11-09T22:20:00.667Z,47.90
2022-11-09T22:22:29.559Z,51.60
2022-11-09T22:24:56.602Z,45.95
2022-11-09T22:27:23.743Z,45.50
2022-11-09T22:29:50.787Z,44.75
2022-11-09T22:32:17.739Z,64.13
2022-11-09T22:34:44.996Z,46.95
2022-11-09T22:37:12.151Z,43.40
2022-11-09T22:39:44.483Z,48.50
2022-11-09T22:42:14.199Z,46.20
2022-11-09T22:44:41.286Z,41.40
2022-11-09T22:47:09.347Z,47.13
2022-11-09T22:49:36.973Z,48.20
2022-11-09T22:52:06.887Z,43.70
2022-11-09T22:54:33.813Z,45.10
2022-11-09T22:57:00.838Z,45.53
2022-11-09T22:59:27.747Z,39.05
2022-11-09T23:01:54.704Z,45.33
2022-11-09T23:04:21.632Z,48.78
2022-11-09T23:06:48.728Z,43.30
2022-11-09T23:09:15.918Z,43.63
2022-11-09T23:11:42.927Z,44.13
2022-11-09T23:14:10.563Z,39.05
2022-11-09T23:16:37.467Z,41.40
2022-11-09T23:19:04.390Z,44.33
2022-11-09T23:21:37.176Z,45.22
2022-11-09T23:24:07.379Z,43.88
2022-11-09T23:26:34.889Z,44.40
2022-11-09T23:29:02.060Z,43.38
2022-11-09T23:31:29.049Z,45.95
2022-11-09T23:33:58.009Z,44.10
2022-11-09T23:36:26.733Z,44.03
2022-11-09T23:38:53.878Z,41.83
2022-11-09T23:41:21.459Z,44.15
2022-11-09T23:43:49.898Z,46.20
2022-11-09T23:46:18.092Z,48.05
2022-11-09T23:48:45.344Z,46.05
2022-11-09T23:51:12.554Z,42.63
2022-11-09T23:53:39.961Z,46.85
2022-11-09T23:56:11.412Z,39.35
2022-11-09T23:58:38.835Z,45.03
